Upstream stations:
Downstream station:
SHEF ID: PANO2 Poteau River near Panama, OK
STATION TYPE:
Regulating: Stage = 29.00, Flow = 10545
PRECIP STAGE RIV-FLOW BAT-LOAD
in ft cfs volt
Ccp-Rev Ccp-Rev Ccp-Rev Ccp-Rev
(US/Central)
01/11 00:00 0.00 16.20 3217 12.41
01/11 01:00 0.00 15.92 3101 12.41
01/11 02:00 0.00 15.60 2971 12.33
01/11 03:00 0.00 15.23 2822 12.33
01/11 04:00 0.00 14.82 2661 12.25
01/11 05:00 0.00 14.39 2495 12.25
01/11 06:00 0.00 13.93 2322 12.17
01/11 07:00 0.00 13.44 2143 12.17
01/11 08:00 0.00 12.94 1960 12.17
01/11 09:00 0.00 12.44 1783 12.17
01/11 10:00 0.00 11.93 1608 12.25
01/11 11:00 0.00 11.44 1447 12.33
01/11 12:00 0.00 10.98 1302 12.65
01/11 13:00 0.00 10.55 1171 12.97
01/11 14:00 0.00 10.14 1049 12.97
01/11 15:00 0.00 9.78 946 12.81
01/11 16:00 0.00 9.45 855 12.81
01/11 17:00 0.00 9.17 779 12.65
01/11 18:00 0.00 8.91 711 12.57
01/11 19:00 0.00 8.69 655 12.49
01/11 20:00 0.00 8.51 611 12.49
01/11 21:00 0.00 8.34 570 12.49
01/11 22:00 0.00 8.19 534 12.41
01/11 23:00 0.00 8.06 503 12.41